Albany, NY (12208)

7:11 AM EDT on October 21, 2019 (GMT -0400)
Inside the Eruv (Albany, NY) | | Change Station
Active Advisory: Dense Fog Advisory

Elev 233 ft 42.66 °N, 73.80 °W | Updated 14 seconds ago

Fog
Fog
45.7 °F
Feels Like 46 °F
N
0
Wind Variable Wind from East
Gusts 0.0 mph

Today
High -- | Low -- °F
--% Chance of Precip.
Yesterday
High -- | Low -- °F
Precip. -- in
Pressure 30.11 in
Visibility 0.5 miles
Clouds Overcast 200 ft
Windchill 46 °F
Dew Point 45 °F
Humidity 97%
Rainfall 0.01 in
Snow Depth Not available.
7:15 AM 6:03 PM
Waning Gibbous, 51% visible
SPECI KALB 211058Z 35003KT 1/2SM R01/4500VP6000FT BR OVC002 08/07 A3011 RMK AO2 SFC VIS 3/4 VIS 1/2V1 T00830067
Pressure 30.11 in
Visibility 0.5 miles
Clouds Overcast 200 ft
Windchill 46 °F
Dew Point 45 °F
Humidity 97%
Rainfall 0.01 in
Snow Depth Not available.
7:15 AM 6:03 PM
Waning Gibbous, 51% visible
SPECI KALB 211058Z 35003KT 1/2SM R01/4500VP6000FT BR OVC002 08/07 A3011 RMK AO2 SFC VIS 3/4 VIS 1/2V1 T00830067

Get Your Daily Forecast Email!

Thanks for signing up!

Be on the lookout for a verification email in your inbox.

You'll start receiving severe weather alerts in your inbox..

×

10-Day Weather Forecast

Almanac

Astronomy

Oct. 21, 2019 Rise Set
Actual Time
Civil Twilight
Nautical Twilight
Astronomical Twilight
Moon
Length of Visible Light
Length of Day
Tomorrow will be .
, % of the Moon is Illuminated

Today's Extremes

State Highs State Lows

Community

WunderPhotos

Category 6

Welcome to Category 6. This is the collective home for Weather Underground's featured writeups by Dr. Jeff Masters (right), Bob Henson (left), Chris Burt, and other regular contributors.

Nearby

Air Quality

  Air Quality AQ Index Pollutant
Not available.

Snow Depth

Station Depth Elevation

Earthquake Activity

City Distance Mag. Time & Date
Minimum magnitude displayed is 2.5.

Coastal Water Temperatures

Place Temperature

Stations

Nearby Weather Stations

Station Location Temp. Windchill Dew Point Humidity Wind Precip. Elev Updated Type
                   

Watches & Warnings

Dense Fog Advisory
Issued: 5:16 AM EDT Oct. 21, 2019 – National Weather Service

... Dense fog advisory remains in effect until 9 am EDT this
morning...

* what... visibility one quarter mile or less in dense fog,
especially in valley locations.

* Where... the greater capital district, the Mid-Hudson valley,
the Mohawk and Schoharie valley, the Taconics, eastern
Catskills, the Lake George Saratoga region, the Berkshires of
western Massachusetts, and southern Vermont.

* When... until 9 am EDT this morning.

* Impacts... hazardous driving conditions due to low visibility,
especially in valley areas, through the morning commute.

* Additional details... be prepared for rapid changes in
visibilities and allow extra time to arrive at your
destination.

Precautionary/preparedness actions...

If driving, slow down, use your headlights, and leave plenty of
distance ahead of you.